createdAt,value
2023-03-06T00:00:09.155Z,28.63
2023-03-06T00:02:42.488Z,27.76
2023-03-06T00:05:13.631Z,27.26
2023-03-06T00:07:45.587Z,28.82
2023-03-06T00:10:20.284Z,28.19
2023-03-06T00:12:58.039Z,28.57
2023-03-06T00:15:30.296Z,27.95
2023-03-06T00:18:01.802Z,27.34
2023-03-06T00:20:33.379Z,28.84
2023-03-06T00:23:04.598Z,28.62
2023-03-06T00:25:39.989Z,28.57
2023-03-06T00:28:13.835Z,28.96
2023-03-06T00:30:46.232Z,29.24
2023-03-06T00:33:17.881Z,27.54
2023-03-06T00:35:49.680Z,27.79
2023-03-06T00:38:21.297Z,27.72
2023-03-06T00:40:53.423Z,27.62
2023-03-06T00:43:25.031Z,26.88
2023-03-06T00:45:56.937Z,27.71
2023-03-06T00:48:27.661Z,28.17
2023-03-06T00:50:58.859Z,29.10
2023-03-06T00:53:29.460Z,29.84
2023-03-06T00:56:00.823Z,28.84
2023-03-06T00:58:31.593Z,28.52
2023-03-06T01:01:02.965Z,28.21
2023-03-06T01:03:34.245Z,28.37
2023-03-06T01:06:06.660Z,28.56
2023-03-06T01:08:39.094Z,27.83
2023-03-06T01:11:10.629Z,25.79
2023-03-06T01:13:42.343Z,26.65
2023-03-06T01:16:18.730Z,27.94
2023-03-06T01:18:52.414Z,28.44
2023-03-06T01:21:23.634Z,27.94
2023-03-06T01:23:57.966Z,28.64
2023-03-06T01:26:29.389Z,29.21
2023-03-06T01:29:01.002Z,29.69
2023-03-06T01:31:32.533Z,29.03
2023-03-06T01:34:04.347Z,29.38
2023-03-06T01:36:36.179Z,29.38
2023-03-06T01:39:07.467Z,29.77
2023-03-06T01:41:38.238Z,30.36
2023-03-06T01:44:10.382Z,29.11
2023-03-06T01:46:47.179Z,26.28
2023-03-06T01:49:26.617Z,27.22
2023-03-06T01:52:08.128Z,27.00
2023-03-06T01:54:52.006Z,27.12
2023-03-06T01:57:31.208Z,27.39
2023-03-06T02:00:21.775Z,26.47
2023-03-06T02:02:56.677Z,27.49
2023-03-06T02:05:28.227Z,28.09
2023-03-06T02:08:00.523Z,28.16
2023-03-06T02:10:31.966Z,28.62
2023-03-06T02:13:03.597Z,27.66
2023-03-06T02:15:34.883Z,29.06
2023-03-06T02:18:06.304Z,30.38
2023-03-06T02:20:42.141Z,28.72
2023-03-06T02:23:29.595Z,28.49
2023-03-06T02:26:02.009Z,28.88
2023-03-06T02:28:33.701Z,28.87
2023-03-06T02:31:05.395Z,28.70
2023-03-06T02:33:36.990Z,29.16
2023-03-06T02:36:09.794Z,29.42
2023-03-06T02:38:51.273Z,29.31
2023-03-06T02:41:24.126Z,29.34
2023-03-06T02:43:56.021Z,29.65
2023-03-06T02:46:27.411Z,29.81
2023-03-06T02:49:00.896Z,29.50
2023-03-06T02:51:32.596Z,29.79
2023-03-06T02:54:04.977Z,29.99
2023-03-06T02:56:36.499Z,28.88
2023-03-06T02:59:07.982Z,29.70
2023-03-06T03:01:39.805Z,30.45
2023-03-06T03:04:11.626Z,29.65
2023-03-06T03:06:43.165Z,29.20
2023-03-06T03:09:15.621Z,29.42
2023-03-06T03:11:46.838Z,27.47
2023-03-06T03:14:18.223Z,28.05
2023-03-06T03:16:50.502Z,28.69
2023-03-06T03:19:21.710Z,28.05
2023-03-06T03:21:53.283Z,27.73
2023-03-06T03:24:26.717Z,27.11
2023-03-06T03:26:58.730Z,27.48
2023-03-06T03:29:31.031Z,27.65
2023-03-06T03:32:03.946Z,28.58
2023-03-06T03:34:35.854Z,28.77
2023-03-06T03:37:08.578Z,28.73
2023-03-06T03:39:41.153Z,28.71
2023-03-06T03:42:12.968Z,29.14
2023-03-06T03:44:44.310Z,29.08
2023-03-06T03:47:14.989Z,28.55
2023-03-06T03:49:47.047Z,28.72
2023-03-06T03:52:19.003Z,29.08
2023-03-06T03:54:50.873Z,28.13
2023-03-06T03:57:21.500Z,28.13
2023-03-06T03:59:55.952Z,26.74
2023-03-06T04:02:45.562Z,26.62
2023-03-06T04:05:26.012Z,26.51
2023-03-06T04:08:00.620Z,26.78
2023-03-06T04:10:30.971Z,26.37
2023-03-06T04:13:02.921Z,26.39
2023-03-06T04:15:34.963Z,26.12
2023-03-06T04:18:06.654Z,26.12
2023-03-06T04:20:37.959Z,26.15
2023-03-06T04:23:09.283Z,26.20
2023-03-06T04:25:41.591Z,26.07
2023-03-06T04:28:15.517Z,25.73
2023-03-06T04:30:46.941Z,26.13
2023-03-06T04:33:18.699Z,27.50
2023-03-06T04:35:50.204Z,28.08
2023-03-06T04:38:27.098Z,27.09
2023-03-06T04:40:58.892Z,27.00
2023-03-06T04:43:30.288Z,26.80
2023-03-06T04:46:01.643Z,27.37
2023-03-06T04:48:32.346Z,27.98
2023-03-06T04:51:04.112Z,28.17
2023-03-06T04:53:35.380Z,28.33
2023-03-06T04:56:06.954Z,28.00
2023-03-06T04:58:38.466Z,27.57
2023-03-06T05:01:09.779Z,26.24
2023-03-06T05:03:40.480Z,26.01
2023-03-06T05:06:11.634Z,26.02
2023-03-06T05:08:42.792Z,26.17
2023-03-06T05:11:14.379Z,25.59
2023-03-06T05:13:46.095Z,25.69
2023-03-06T05:16:17.722Z,25.42
2023-03-06T05:18:50.591Z,25.41
2023-03-06T05:21:22.022Z,25.49
2023-03-06T05:23:53.110Z,25.51
2023-03-06T05:26:23.669Z,25.43
2023-03-06T05:28:55.644Z,25.48
2023-03-06T05:31:26.651Z,25.03
2023-03-06T05:33:59.224Z,24.78
2023-03-06T05:36:30.926Z,24.63
2023-03-06T05:39:01.581Z,24.47
2023-03-06T05:41:32.457Z,24.64
2023-03-06T05:44:03.768Z,24.50
2023-03-06T05:46:34.875Z,24.28
2023-03-06T05:49:06.083Z,23.92
2023-03-06T05:51:38.518Z,23.87
2023-03-06T05:54:10.668Z,24.03
2023-03-06T05:56:42.882Z,23.64
2023-03-06T05:59:14.531Z,23.38
2023-03-06T06:01:45.829Z,23.63
2023-03-06T06:04:18.044Z,23.47
2023-03-06T06:06:53.002Z,23.55
2023-03-06T06:09:24.389Z,23.64
2023-03-06T06:11:57.420Z,23.42
2023-03-06T06:14:29.264Z,23.33
2023-03-06T06:17:00.619Z,23.40
2023-03-06T06:19:32.280Z,23.28
2023-03-06T06:22:05.281Z,23.21
2023-03-06T06:24:36.303Z,23.07
2023-03-06T06:27:08.062Z,23.08
2023-03-06T06:29:39.405Z,22.88
2023-03-06T06:32:10.943Z,22.75
2023-03-06T06:34:42.099Z,22.87
2023-03-06T06:37:12.888Z,22.89
2023-03-06T06:39:44.482Z,22.74
2023-03-06T06:42:30.488Z,22.69
2023-03-06T06:45:04.837Z,22.64
2023-03-06T06:47:36.487Z,22.72
2023-03-06T06:50:07.537Z,22.51
2023-03-06T06:52:39.066Z,22.40
2023-03-06T06:55:10.734Z,22.30
2023-03-06T06:57:43.659Z,22.16
2023-03-06T07:00:17.248Z,22.36
2023-03-06T07:02:50.674Z,22.59
2023-03-06T07:05:22.231Z,22.67
2023-03-06T07:07:53.559Z,22.73
2023-03-06T07:10:24.926Z,22.64
2023-03-06T07:12:58.042Z,22.48
2023-03-06T07:15:31.288Z,22.55
2023-03-06T07:18:02.787Z,22.44
2023-03-06T07:20:33.484Z,22.43
2023-03-06T07:23:04.936Z,22.30
2023-03-06T07:25:36.307Z,22.20
2023-03-06T07:28:07.385Z,22.13
2023-03-06T07:30:38.713Z,21.96
2023-03-06T07:33:09.968Z,22.12
2023-03-06T07:35:42.199Z,21.80
2023-03-06T07:38:13.976Z,21.72
2023-03-06T07:40:45.633Z,21.68
2023-03-06T07:43:19.472Z,21.74
2023-03-06T07:46:01.719Z,21.29
2023-03-06T07:48:33.254Z,21.26
2023-03-06T07:51:05.832Z,21.19
2023-03-06T07:53:37.936Z,21.31
2023-03-06T07:56:12.605Z,21.03
2023-03-06T07:58:47.397Z,21.03
2023-03-06T08:01:21.835Z,20.93
2023-03-06T08:03:53.600Z,20.84
2023-03-06T08:06:25.199Z,21.14
2023-03-06T08:08:57.872Z,21.11
2023-03-06T08:11:31.535Z,20.96
2023-03-06T08:14:02.971Z,21.31
2023-03-06T08:16:34.212Z,20.99
2023-03-06T08:19:05.326Z,21.01
2023-03-06T08:21:36.431Z,21.07
2023-03-06T08:24:08.597Z,20.97
2023-03-06T08:26:40.273Z,21.17
2023-03-06T08:29:13.013Z,21.08
2023-03-06T08:31:47.567Z,21.05
2023-03-06T08:34:21.372Z,20.93
2023-03-06T08:36:53.220Z,20.89
2023-03-06T08:39:25.245Z,20.76
2023-03-06T08:41:56.633Z,20.83
2023-03-06T08:44:27.878Z,20.77
2023-03-06T08:46:59.126Z,20.62
2023-03-06T08:49:30.473Z,20.76
2023-03-06T08:52:01.868Z,20.66
2023-03-06T08:54:33.703Z,20.55
2023-03-06T08:57:05.532Z,20.35
2023-03-06T08:59:36.023Z,20.53
2023-03-06T09:02:08.998Z,20.37
2023-03-06T09:04:40.461Z,20.33
2023-03-06T09:07:11.158Z,20.36
2023-03-06T09:09:42.705Z,20.35
2023-03-06T09:12:13.789Z,20.34
2023-03-06T09:14:44.993Z,20.42
2023-03-06T09:17:15.868Z,20.26
2023-03-06T09:19:46.989Z,20.26
2023-03-06T09:22:17.869Z,20.26
2023-03-06T09:24:49.183Z,20.11
2023-03-06T09:27:20.581Z,20.15
2023-03-06T09:29:51.685Z,19.84
2023-03-06T09:32:23.827Z,20.08
2023-03-06T09:34:55.325Z,20.17
2023-03-06T09:37:28.188Z,20.03
2023-03-06T09:40:00.002Z,20.23
2023-03-06T09:42:35.225Z,20.13
2023-03-06T09:45:07.774Z,20.05
2023-03-06T09:48:15.823Z,20.15
2023-03-06T09:50:53.773Z,20.17
2023-03-06T09:53:46.128Z,20.22
2023-03-06T09:56:22.002Z,20.36
2023-03-06T09:58:58.210Z,20.26
2023-03-06T10:01:36.543Z,20.17
2023-03-06T10:04:22.618Z,20.15
2023-03-06T10:06:58.174Z,20.07
2023-03-06T10:09:43.811Z,20.23
2023-03-06T10:12:35.086Z,20.12
2023-03-06T10:15:34.183Z,20.02
2023-03-06T10:18:06.691Z,20.13
2023-03-06T10:20:55.757Z,19.86
2023-03-06T10:23:45.264Z,19.91
2023-03-06T10:26:21.792Z,19.63
2023-03-06T10:29:38.532Z,20.06
2023-03-06T10:32:49.351Z,19.87
2023-03-06T10:35:43.209Z,19.96
2023-03-06T10:38:24.509Z,19.91
2023-03-06T10:41:18.915Z,19.85
2023-03-06T10:44:02.503Z,19.82
2023-03-06T10:46:38.707Z,19.69
2023-03-06T10:49:31.967Z,19.89
2023-03-06T10:52:26.430Z,19.89
2023-03-06T10:55:28.937Z,19.89
2023-03-06T10:58:03.980Z,19.83
2023-03-06T11:00:40.232Z,19.64
2023-03-06T11:03:21.499Z,19.64
2023-03-06T11:06:16.611Z,19.58
2023-03-06T11:08:47.831Z,19.66
2023-03-06T11:11:37.209Z,19.65
2023-03-06T11:14:17.870Z,19.66
2023-03-06T11:16:56.375Z,19.69
2023-03-06T11:19:29.691Z,19.79
2023-03-06T11:22:20.845Z,19.69
2023-03-06T11:24:53.395Z,19.84
2023-03-06T11:27:36.086Z,19.80
2023-03-06T11:30:21.068Z,19.90
2023-03-06T11:33:00.055Z,19.67
2023-03-06T11:35:41.738Z,19.74
2023-03-06T11:38:44.879Z,19.76
2023-03-06T11:41:37.811Z,19.67
2023-03-06T11:44:18.235Z,19.65
2023-03-06T11:47:08.342Z,19.67
2023-03-06T11:49:46.890Z,19.78
2023-03-06T11:52:46.412Z,19.93
2023-03-06T11:55:43.573Z,19.97
2023-03-06T11:58:38.474Z,19.83
2023-03-06T12:01:19.045Z,19.65
2023-03-06T12:04:08.606Z,19.58
2023-03-06T12:07:08.438Z,19.48
2023-03-06T12:09:48.397Z,19.56
2023-03-06T12:12:40.497Z,19.49
2023-03-06T12:15:11.646Z,19.50
2023-03-06T12:17:55.083Z,19.53
2023-03-06T12:20:46.451Z,19.64
2023-03-06T12:24:01.381Z,19.11
2023-03-06T12:26:42.033Z,19.15
2023-03-06T12:29:35.269Z,19.49
2023-03-06T12:32:19.304Z,19.22
2023-03-06T12:35:26.962Z,18.93
2023-03-06T12:38:13.343Z,19.10
2023-03-06T12:41:05.736Z,18.95
2023-03-06T12:43:55.509Z,18.77
2023-03-06T12:46:28.696Z,18.72
2023-03-06T12:49:32.912Z,18.26
2023-03-06T12:52:04.920Z,18.29
2023-03-06T12:54:37.234Z,18.24
2023-03-06T12:57:10.841Z,18.08
2023-03-06T12:59:49.603Z,18.17
2023-03-06T13:02:51.166Z,18.13
2023-03-06T13:05:44.377Z,18.08
2023-03-06T13:08:30.989Z,18.06
2023-03-06T13:11:38.557Z,17.92
2023-03-06T13:14:34.091Z,17.80
2023-03-06T13:17:26.348Z,17.82
2023-03-06T13:20:16.279Z,17.62
2023-03-06T13:22:49.475Z,17.59
2023-03-06T13:25:23.829Z,17.62
2023-03-06T13:27:55.375Z,17.33
2023-03-06T13:30:50.933Z,17.29
2023-03-06T13:33:34.112Z,17.08
2023-03-06T13:36:33.643Z,16.94
2023-03-06T13:39:12.273Z,17.03
2023-03-06T13:41:46.011Z,16.74
2023-03-06T13:44:26.238Z,16.79
2023-03-06T13:47:05.290Z,16.79
2023-03-06T13:49:37.848Z,16.81
2023-03-06T13:52:44.990Z,16.58
2023-03-06T13:55:33.038Z,16.70
2023-03-06T13:58:42.985Z,16.45
2023-03-06T14:01:37.320Z,16.51
2023-03-06T14:04:08.559Z,16.49
2023-03-06T14:06:40.805Z,16.50
2023-03-06T14:09:45.800Z,16.45
2023-03-06T14:12:28.102Z,16.50
2023-03-06T14:15:02.640Z,16.47
2023-03-06T14:17:40.766Z,16.37
2023-03-06T14:20:18.229Z,16.48
2023-03-06T14:22:49.522Z,16.55
2023-03-06T14:25:30.585Z,16.49
2023-03-06T14:28:13.604Z,16.65
2023-03-06T14:30:52.435Z,16.68
2023-03-06T14:33:44.959Z,16.60
2023-03-06T14:36:19.032Z,16.56
2023-03-06T14:38:52.848Z,16.48
2023-03-06T14:41:41.656Z,16.46
2023-03-06T14:44:24.409Z,16.44
2023-03-06T14:46:57.654Z,16.43
2023-03-06T14:49:28.937Z,16.44
2023-03-06T14:52:05.647Z,16.50
2023-03-06T14:54:40.916Z,16.36
2023-03-06T14:57:21.505Z,16.50
2023-03-06T14:59:58.494Z,16.45
2023-03-06T15:02:34.474Z,16.47
2023-03-06T15:05:35.147Z,16.45
2023-03-06T15:08:09.487Z,16.45
2023-03-06T15:10:40.803Z,16.45
2023-03-06T15:13:11.873Z,16.54
2023-03-06T15:15:42.960Z,16.46
2023-03-06T15:18:51.808Z,16.53
2023-03-06T15:21:24.931Z,16.42
2023-03-06T15:23:58.161Z,16.34
2023-03-06T15:26:34.819Z,16.37
2023-03-06T15:29:15.282Z,16.42
2023-03-06T15:31:47.677Z,16.31
2023-03-06T15:34:26.793Z,16.14
2023-03-06T15:37:01.335Z,15.98
2023-03-06T15:39:42.955Z,16.01
2023-03-06T15:42:20.533Z,15.82
2023-03-06T15:45:06.971Z,15.69
2023-03-06T15:47:40.652Z,15.81
2023-03-06T15:50:23.190Z,15.59
2023-03-06T15:52:55.093Z,15.56
2023-03-06T15:55:27.705Z,15.66
2023-03-06T15:58:03.685Z,15.69
2023-03-06T16:00:42.777Z,15.70
2023-03-06T16:03:14.993Z,15.86
2023-03-06T16:05:46.362Z,15.42
2023-03-06T16:08:17.786Z,15.29
2023-03-06T16:10:50.632Z,15.50
2023-03-06T16:13:29.475Z,15.47
2023-03-06T16:16:00.718Z,15.39
2023-03-06T16:18:33.013Z,15.21
2023-03-06T16:21:04.194Z,15.34
2023-03-06T16:23:40.278Z,15.40
2023-03-06T16:26:21.827Z,15.24
2023-03-06T16:28:53.164Z,15.37
2023-03-06T16:31:24.240Z,15.52
2023-03-06T16:33:55.776Z,15.56
2023-03-06T16:36:29.020Z,15.52
2023-03-06T16:39:00.193Z,15.37
2023-03-06T16:41:31.307Z,15.29
2023-03-06T16:44:02.400Z,15.23
2023-03-06T16:46:33.910Z,15.17
2023-03-06T16:49:07.466Z,15.30
2023-03-06T16:51:41.304Z,15.21
2023-03-06T16:54:12.964Z,15.10
2023-03-06T16:56:44.733Z,14.79
2023-03-06T16:59:16.183Z,14.86
2023-03-06T17:01:47.229Z,15.02
2023-03-06T17:04:18.275Z,15.08
2023-03-06T17:06:49.833Z,15.04
2023-03-06T17:09:20.518Z,14.97
2023-03-06T17:11:51.816Z,14.88
2023-03-06T17:14:23.213Z,14.88
2023-03-06T17:16:57.186Z,14.85
2023-03-06T17:19:28.507Z,14.91
2023-03-06T17:22:00.113Z,15.01
2023-03-06T17:24:31.365Z,14.94
2023-03-06T17:27:02.881Z,14.93
2023-03-06T17:29:34.178Z,14.81
2023-03-06T17:32:05.705Z,14.93
2023-03-06T17:34:37.213Z,15.17
2023-03-06T17:37:08.478Z,15.22
2023-03-06T17:39:41.100Z,15.26
2023-03-06T17:42:12.432Z,15.21
2023-03-06T17:44:44.182Z,15.18
2023-03-06T17:47:15.610Z,15.12
2023-03-06T17:49:47.223Z,14.98
2023-03-06T17:52:18.132Z,14.84
2023-03-06T17:54:49.535Z,15.01
2023-03-06T17:57:20.745Z,15.04
2023-03-06T17:59:51.943Z,15.19
2023-03-06T18:02:23.064Z,15.19
2023-03-06T18:04:55.180Z,15.39
2023-03-06T18:07:26.421Z,15.49
2023-03-06T18:09:58.416Z,15.46
2023-03-06T18:12:29.479Z,15.44
2023-03-06T18:15:01.091Z,15.30
2023-03-06T18:17:33.329Z,15.22
2023-03-06T18:20:04.982Z,15.11
2023-03-06T18:22:36.123Z,15.24
2023-03-06T18:25:07.830Z,15.39
2023-03-06T18:27:39.307Z,15.32
2023-03-06T18:30:11.546Z,15.34
2023-03-06T18:32:43.104Z,15.40
2023-03-06T18:35:14.256Z,15.35
2023-03-06T18:37:45.959Z,15.41
2023-03-06T18:40:17.576Z,15.41
2023-03-06T18:42:50.027Z,15.54
2023-03-06T18:45:21.464Z,15.68
2023-03-06T18:47:52.607Z,15.88
2023-03-06T18:50:24.025Z,16.02
2023-03-06T18:52:55.347Z,16.07
2023-03-06T18:55:26.530Z,16.25
2023-03-06T18:57:57.601Z,16.57
2023-03-06T19:00:29.187Z,16.66
2023-03-06T19:03:00.389Z,16.76
2023-03-06T19:05:31.294Z,16.92
2023-03-06T19:08:02.424Z,17.13
2023-03-06T19:10:37.371Z,17.08
2023-03-06T19:13:09.803Z,17.16
2023-03-06T19:15:51.494Z,17.58
2023-03-06T19:18:22.436Z,17.72
2023-03-06T19:20:54.531Z,18.00
2023-03-06T19:23:25.712Z,17.98
2023-03-06T19:25:59.898Z,17.88
2023-03-06T19:28:31.094Z,18.22
2023-03-06T19:31:02.921Z,18.50
2023-03-06T19:33:33.901Z,18.69
2023-03-06T19:36:06.686Z,18.75
2023-03-06T19:38:38.198Z,19.12
2023-03-06T19:41:14.851Z,19.12
2023-03-06T19:43:46.813Z,19.49
2023-03-06T19:46:18.590Z,19.28
2023-03-06T19:48:50.643Z,19.42
2023-03-06T19:51:22.200Z,19.38
2023-03-06T19:53:53.805Z,19.88
2023-03-06T19:56:25.661Z,18.97
2023-03-06T19:58:57.730Z,18.90
2023-03-06T20:01:30.162Z,20.04
2023-03-06T20:04:02.182Z,19.98
2023-03-06T20:06:38.144Z,20.00
2023-03-06T20:09:11.136Z,20.74
2023-03-06T20:11:42.707Z,20.66
2023-03-06T20:14:15.045Z,20.46
2023-03-06T20:16:47.146Z,21.19
2023-03-06T20:19:18.672Z,20.11
2023-03-06T20:21:49.479Z,19.98
2023-03-06T20:24:20.878Z,20.20
2023-03-06T20:26:52.780Z,21.19
2023-03-06T20:29:24.003Z,20.84
2023-03-06T20:31:59.457Z,21.35
2023-03-06T20:34:30.597Z,21.32
2023-03-06T20:37:01.884Z,21.23
2023-03-06T20:39:33.420Z,21.37
2023-03-06T20:42:05.508Z,21.38
2023-03-06T20:44:36.511Z,21.92
2023-03-06T20:47:08.188Z,22.44
2023-03-06T20:49:39.670Z,22.28
2023-03-06T20:52:11.028Z,22.71
2023-03-06T20:54:42.688Z,22.25
2023-03-06T20:57:14.016Z,22.27
2023-03-06T20:59:46.543Z,22.85
2023-03-06T21:02:17.787Z,22.24
2023-03-06T21:04:49.174Z,22.91
2023-03-06T21:07:21.244Z,22.43
2023-03-06T21:09:53.744Z,22.44
2023-03-06T21:12:25.341Z,22.59
2023-03-06T21:14:56.531Z,22.75
2023-03-06T21:17:28.292Z,23.05
2023-03-06T21:20:00.021Z,23.36
2023-03-06T21:22:33.338Z,23.45
2023-03-06T21:25:04.784Z,23.74
2023-03-06T21:27:36.379Z,23.59
2023-03-06T21:30:08.639Z,23.57
2023-03-06T21:32:39.880Z,23.93
2023-03-06T21:35:11.389Z,24.91
2023-03-06T21:37:42.709Z,23.75
2023-03-06T21:40:15.748Z,23.35
2023-03-06T21:42:47.096Z,23.03
2023-03-06T21:45:18.728Z,23.42
2023-03-06T21:47:53.157Z,22.75
2023-03-06T21:50:25.204Z,22.08
2023-03-06T21:52:58.274Z,23.61
2023-03-06T21:55:29.447Z,24.75
2023-03-06T21:58:00.540Z,24.51
2023-03-06T22:00:31.717Z,24.35
2023-03-06T22:03:04.979Z,24.96
2023-03-06T22:05:36.096Z,24.06
2023-03-06T22:08:07.129Z,24.45
2023-03-06T22:10:41.502Z,23.67
2023-03-06T22:13:13.072Z,25.15
2023-03-06T22:15:55.023Z,24.52
2023-03-06T22:18:26.353Z,24.75
2023-03-06T22:20:59.840Z,24.73
2023-03-06T22:23:31.141Z,24.16
2023-03-06T22:26:07.242Z,24.87
2023-03-06T22:28:39.162Z,25.35
2023-03-06T22:31:13.411Z,25.13
2023-03-06T22:33:44.905Z,24.87
2023-03-06T22:36:17.605Z,23.13
2023-03-06T22:38:50.565Z,24.60
2023-03-06T22:41:22.426Z,24.75
2023-03-06T22:43:53.362Z,26.24
2023-03-06T22:46:24.944Z,25.12
2023-03-06T22:48:57.668Z,24.60
2023-03-06T22:51:30.130Z,25.59
2023-03-06T22:54:01.725Z,26.06
2023-03-06T22:56:33.035Z,26.35
2023-03-06T22:59:03.761Z,26.20
2023-03-06T23:01:36.424Z,25.61
2023-03-06T23:04:12.535Z,25.64
2023-03-06T23:06:46.177Z,25.24
2023-03-06T23:09:23.609Z,24.73
2023-03-06T23:12:13.129Z,25.50
2023-03-06T23:15:02.104Z,24.93
2023-03-06T23:17:53.737Z,25.97
2023-03-06T23:20:46.416Z,26.39
2023-03-06T23:23:35.803Z,25.14
2023-03-06T23:26:09.477Z,25.07
2023-03-06T23:28:41.250Z,24.74
2023-03-06T23:31:15.861Z,25.67
2023-03-06T23:33:47.193Z,26.09
2023-03-06T23:36:20.151Z,25.72
2023-03-06T23:38:51.771Z,26.20
2023-03-06T23:41:24.474Z,27.48
2023-03-06T23:43:56.304Z,25.87
2023-03-06T23:46:27.529Z,25.82
2023-03-06T23:48:59.041Z,27.45
2023-03-06T23:51:30.715Z,27.65
2023-03-06T23:54:01.857Z,27.06
2023-03-06T23:56:33.398Z,26.79
2023-03-06T23:59:05.026Z,27.63
